Terminal Aerodrome Forecast
Issued by NWS

Home | Current Version | Previous Version | Text Only | Print | Product List | Glossary On
Versions: 1 2 3 4 5 6 7 8 9 10 11 12 13 14 15 16 17 18 19 20 21 22 23 24 25 26 27
060
FTUS44 KFWD 202329
TAFGKY
TAF
KGKY 202329Z 2100/2124 16016KT P6SM FEW050 SCT150
     FM211100 18013KT P6SM BKN015
     FM211600 17018KT P6SM SCT025 SCT250=

USA.gov is the U.S. government's official web portal to all federal, state and local government web resources and services.